This is the latest recevied weather packets stored in our database for station/object W0DXV. If no packets are shown the sender has not sent any weather packets the latest 1 day(s).
| Time | Temp. | Humidity | Pressure | Rain* | Wind** | Luminosity | Snow |
|---|---|---|---|---|---|---|---|
| 1778071564 | 17.78° C | 77% | 1009.6 hPa | 0 mm | - | 115 W/m² | - |
| 1778070959 | 17.78° C | 77% | 1009.8 hPa | 0 mm | - | 108 W/m² | - |
| 1778069749 | 17.22° C | 77% | 1010.3 hPa | 0 mm | - | 69 W/m² | - |
| 1778069445 | 17.22° C | 78% | 1010.4 hPa | 0 mm | - | 44 W/m² | - |
| 1778068840 | 17.22° C | 78% | 1010.5 hPa | 0 mm | - | 53 W/m² | - |
| 1778067933 | 16.67° C | 78% | 1010.1 hPa | 0 mm | - | 44 W/m² | - |
| 1778067632 | 16.67° C | 78% | 1010 hPa | 0 mm | - | 39 W/m² | - |
| 1778067329 | 16.67° C | 79% | 1010.2 hPa | 0 mm | - | 26 W/m² | - |
| 1778066723 | 16.67° C | 78% | 1010.2 hPa | 0 mm | - | 24 W/m² | - |
| 1778066420 | 16.67° C | 79% | 1010 hPa | 0 mm | - | 19 W/m² | - |
| 1778065815 | 16.11° C | 81% | 1009.8 hPa | 0 mm | - | 22 W/m² | - |
| 1778064301 | 15.56° C | 82% | 1009.1 hPa | 0 mm | - | 15 W/m² | - |
| 1778063999 | 15.56° C | 81% | 1009.3 hPa | 0 mm | - | 8 W/m² | - |
| 1778063392 | 15.56° C | 81% | 1009 hPa | 0 mm | - | 3 W/m² | - |
| 1778062484 | 15.56° C | 81% | 1008.9 hPa | 0 mm | - | 0 W/m² | - |
| 1778061880 | 15.56° C | 82% | 1009.1 hPa | 0 mm | - | 0 W/m² | - |
| 1778061276 | 16.11° C | 79% | 1009.2 hPa | 0 mm | - | 0 W/m² | - |
| 1778060670 | 16.11° C | 80% | 1009.2 hPa | 0 mm | - | 0 W/m² | - |
| 1778060065 | 16.67° C | 78% | 1009.3 hPa | 0 mm | - | 0 W/m² | - |
| 1778059763 | 16.67° C | 78% | 1009.1 hPa | 0 mm | - | 0 W/m² | - |
| 1778058552 | 16.67° C | 76% | 1009.5 hPa | 0 mm | - | 0 W/m² | - |
| 1778058250 | 16.67° C | 77% | 1009.3 hPa | 0 mm | - | 0 W/m² | - |
| 1778057946 | 16.67° C | 77% | 1009.3 hPa | 0 mm | - | 0 W/m² | - |
| 1778057643 | 16.67° C | 77% | 1009.7 hPa | 0 mm | - | 0 W/m² | - |
| 1778057339 | 16.67° C | 77% | 1009.8 hPa | 0 mm | - | 0 W/m² | - |
* Rain latest hour (hover to see other rain measurements)
** Current wind speed in m/s (hover to see current wind gust speed)